createdAt,value
2018-11-26T00:00:17.777Z,960.53
2018-11-26T00:01:17.762Z,960.54
2018-11-26T00:02:17.747Z,960.59
2018-11-26T00:03:17.732Z,960.60
2018-11-26T00:04:17.714Z,960.60
2018-11-26T00:05:17.702Z,960.52
2018-11-26T00:06:17.685Z,960.53
2018-11-26T00:07:17.670Z,960.54
2018-11-26T00:08:17.655Z,960.56
2018-11-26T00:09:17.641Z,960.55
2018-11-26T00:10:17.624Z,960.58
2018-11-26T00:11:17.610Z,960.55
2018-11-26T00:12:17.594Z,960.51
2018-11-26T00:13:17.578Z,960.48
2018-11-26T00:14:17.565Z,960.48
2018-11-26T00:15:17.552Z,960.47
2018-11-26T00:16:17.536Z,960.50
2018-11-26T00:17:17.520Z,960.45
2018-11-26T00:18:17.508Z,960.41
2018-11-26T00:19:17.492Z,960.44
2018-11-26T00:20:17.474Z,960.44
2018-11-26T00:21:17.460Z,960.42
2018-11-26T00:22:17.445Z,960.39
2018-11-26T00:23:17.431Z,960.43
2018-11-26T00:24:17.416Z,960.41
2018-11-26T00:25:17.399Z,960.46
2018-11-26T00:26:17.382Z,960.45
2018-11-26T00:27:17.367Z,960.51
2018-11-26T00:28:17.355Z,960.52
2018-11-26T00:29:17.336Z,960.53
2018-11-26T00:30:17.323Z,960.52
2018-11-26T00:31:17.309Z,960.50
2018-11-26T00:32:17.291Z,960.50
2018-11-26T00:33:17.277Z,960.52
2018-11-26T00:34:17.260Z,960.49
2018-11-26T00:35:17.247Z,960.50
2018-11-26T00:36:17.232Z,960.53
2018-11-26T00:37:17.214Z,960.50
2018-11-26T00:38:17.199Z,960.50
2018-11-26T00:39:17.186Z,960.48
2018-11-26T00:40:17.171Z,960.46
2018-11-26T00:41:17.155Z,960.46
2018-11-26T00:42:17.145Z,960.50
2018-11-26T00:43:17.123Z,960.46
2018-11-26T00:44:17.108Z,960.42
2018-11-26T00:45:17.092Z,960.40
2018-11-26T00:46:17.077Z,960.41
2018-11-26T00:47:17.063Z,960.38
2018-11-26T00:48:17.048Z,960.43
2018-11-26T00:49:17.033Z,960.44
2018-11-26T00:50:17.033Z,960.41
2018-11-26T00:51:17.004Z,960.38
2018-11-26T00:52:16.987Z,960.37
2018-11-26T00:53:16.973Z,960.37
2018-11-26T00:54:16.957Z,960.41
2018-11-26T00:55:16.946Z,960.40
2018-11-26T00:56:16.928Z,960.37
2018-11-26T00:57:16.909Z,960.40
2018-11-26T00:58:16.896Z,960.43
2018-11-26T00:59:16.883Z,960.39
2018-11-26T01:00:16.866Z,960.41
2018-11-26T01:01:16.849Z,960.40
2018-11-26T01:02:16.836Z,960.35
2018-11-26T01:03:16.818Z,960.39
2018-11-26T01:04:16.805Z,960.36
2018-11-26T01:05:16.794Z,960.38
2018-11-26T01:06:16.772Z,960.43
2018-11-26T01:07:16.756Z,960.44
2018-11-26T01:08:16.749Z,960.46
2018-11-26T01:09:16.724Z,960.45
2018-11-26T01:10:16.712Z,960.44
2018-11-26T01:11:16.694Z,960.43
2018-11-26T01:12:16.680Z,960.38
2018-11-26T01:13:16.663Z,960.44
2018-11-26T01:14:16.648Z,960.38
2018-11-26T01:15:16.631Z,960.35
2018-11-26T01:16:16.617Z,960.38
2018-11-26T01:17:16.600Z,960.40
2018-11-26T01:18:16.586Z,960.37
2018-11-26T01:19:16.571Z,960.41
2018-11-26T01:20:16.565Z,960.40
2018-11-26T01:21:16.539Z,960.37
2018-11-26T01:22:16.526Z,960.35
2018-11-26T01:23:16.511Z,960.39
2018-11-26T01:24:16.498Z,960.40
2018-11-26T01:25:16.478Z,960.43
2018-11-26T01:26:16.463Z,960.38
2018-11-26T01:27:16.450Z,960.34
2018-11-26T01:28:16.442Z,960.40
2018-11-26T01:29:16.416Z,960.36
2018-11-26T01:30:16.406Z,960.41
2018-11-26T01:31:16.387Z,960.34
2018-11-26T01:32:16.372Z,960.39
2018-11-26T01:33:16.356Z,960.34
2018-11-26T01:34:16.343Z,960.36
2018-11-26T01:35:16.326Z,960.34
2018-11-26T01:36:16.311Z,960.37
2018-11-26T01:37:16.334Z,960.38
2018-11-26T01:38:16.280Z,960.39
2018-11-26T01:39:16.268Z,960.37
2018-11-26T01:40:16.254Z,960.38
2018-11-26T01:41:16.237Z,960.35
2018-11-26T01:42:16.219Z,960.42
2018-11-26T01:43:16.204Z,960.40
2018-11-26T01:44:16.192Z,960.37
2018-11-26T01:45:16.175Z,960.35
2018-11-26T01:46:16.162Z,960.35
2018-11-26T01:47:16.144Z,960.28
2018-11-26T01:48:16.129Z,960.27
2018-11-26T01:49:16.114Z,960.32
2018-11-26T01:50:16.099Z,960.29
2018-11-26T01:51:16.083Z,960.32
2018-11-26T01:52:16.070Z,960.37
2018-11-26T01:53:16.055Z,960.30
2018-11-26T01:54:16.039Z,960.34
2018-11-26T01:55:16.021Z,960.32
2018-11-26T01:56:16.007Z,960.32
2018-11-26T01:57:15.992Z,960.30
2018-11-26T01:58:15.978Z,960.33
2018-11-26T01:59:15.960Z,960.29
2018-11-26T02:00:15.947Z,960.27
2018-11-26T02:01:15.936Z,960.25
2018-11-26T02:02:15.918Z,960.24
2018-11-26T02:03:15.902Z,960.29
2018-11-26T02:04:15.887Z,960.26
2018-11-26T02:05:15.873Z,960.28
2018-11-26T02:06:15.858Z,960.28
2018-11-26T02:07:15.842Z,960.29
2018-11-26T02:08:15.827Z,960.29
2018-11-26T02:09:15.812Z,960.34
2018-11-26T02:10:15.801Z,960.29
2018-11-26T02:11:15.782Z,960.33
2018-11-26T02:12:15.768Z,960.31
2018-11-26T02:13:15.752Z,960.33
2018-11-26T02:14:15.737Z,960.29
2018-11-26T02:15:15.724Z,960.29
2018-11-26T02:16:15.712Z,960.27
2018-11-26T02:17:15.692Z,960.27
2018-11-26T02:18:15.678Z,960.26
2018-11-26T02:19:15.661Z,960.20
2018-11-26T02:20:15.648Z,960.16
2018-11-26T02:21:15.632Z,960.21
2018-11-26T02:22:15.616Z,960.23
2018-11-26T02:23:15.602Z,960.26
2018-11-26T02:24:15.590Z,960.26
2018-11-26T02:25:15.570Z,960.26
2018-11-26T02:26:15.557Z,960.30
2018-11-26T02:27:15.544Z,960.30
2018-11-26T02:28:15.526Z,960.30
2018-11-26T02:29:15.513Z,960.33
2018-11-26T02:30:15.498Z,960.31
2018-11-26T02:31:15.483Z,960.29
2018-11-26T02:32:15.469Z,960.29
2018-11-26T02:33:15.451Z,960.27
2018-11-26T02:34:15.440Z,960.24
2018-11-26T02:35:15.423Z,960.25
2018-11-26T02:36:15.407Z,960.30
2018-11-26T02:37:15.394Z,960.28
2018-11-26T02:38:15.378Z,960.33
2018-11-26T02:39:15.364Z,960.32
2018-11-26T02:40:15.350Z,960.34
2018-11-26T02:41:15.334Z,960.29
2018-11-26T02:42:15.322Z,960.31
2018-11-26T02:43:15.303Z,960.24
2018-11-26T02:44:15.288Z,960.27
2018-11-26T02:45:15.275Z,960.25
2018-11-26T02:46:15.259Z,960.27
2018-11-26T02:47:15.247Z,960.31
2018-11-26T02:48:15.235Z,960.30
2018-11-26T02:49:15.216Z,960.29
2018-11-26T02:50:15.199Z,960.26
2018-11-26T02:51:15.190Z,960.33
2018-11-26T02:52:15.170Z,960.29
2018-11-26T02:53:15.156Z,960.30
2018-11-26T02:54:15.138Z,960.27
2018-11-26T02:55:15.124Z,960.24
2018-11-26T02:56:15.111Z,960.28
2018-11-26T02:57:15.093Z,960.26
2018-11-26T02:58:15.086Z,960.25
2018-11-26T02:59:15.065Z,960.26
2018-11-26T03:00:15.051Z,960.23
2018-11-26T03:01:15.035Z,960.24
2018-11-26T03:02:15.021Z,960.20
2018-11-26T03:03:15.007Z,960.15
2018-11-26T03:04:15.002Z,960.17
2018-11-26T03:05:14.974Z,960.17
2018-11-26T03:06:14.960Z,960.19
2018-11-26T03:07:14.954Z,960.19
2018-11-26T03:08:14.932Z,960.20
2018-11-26T03:09:14.914Z,960.22
2018-11-26T03:10:14.899Z,960.23
2018-11-26T03:11:14.893Z,960.24
2018-11-26T03:12:14.870Z,960.23
2018-11-26T03:13:14.855Z,960.22
2018-11-26T03:14:14.842Z,960.19
2018-11-26T03:15:14.840Z,960.16
2018-11-26T03:16:14.811Z,960.14
2018-11-26T03:17:14.795Z,960.11
2018-11-26T03:18:14.782Z,960.06
2018-11-26T03:19:14.770Z,960.06
2018-11-26T03:20:14.763Z,960.06
2018-11-26T03:21:14.735Z,960.07
2018-11-26T03:22:14.723Z,960.10
2018-11-26T03:23:14.716Z,960.09
2018-11-26T03:24:14.693Z,960.12
2018-11-26T03:25:14.677Z,960.16
2018-11-26T03:26:14.660Z,960.20
2018-11-26T03:27:14.647Z,960.15
2018-11-26T03:28:14.632Z,960.19
2018-11-26T03:29:14.616Z,960.20
2018-11-26T03:30:14.600Z,960.19
2018-11-26T03:31:14.588Z,960.17
2018-11-26T03:32:14.572Z,960.12
2018-11-26T03:33:14.556Z,960.13
2018-11-26T03:34:14.542Z,960.08
2018-11-26T03:35:14.527Z,960.11
2018-11-26T03:36:14.514Z,960.08
2018-11-26T03:37:14.501Z,960.08
2018-11-26T03:38:14.483Z,960.06
2018-11-26T03:39:14.470Z,960.11
2018-11-26T03:40:14.453Z,960.05
2018-11-26T03:41:14.440Z,960.07
2018-11-26T03:42:14.424Z,960.10
2018-11-26T03:43:14.409Z,960.08
2018-11-26T03:44:14.392Z,960.10
2018-11-26T03:45:14.379Z,960.06
2018-11-26T03:46:14.365Z,960.03
2018-11-26T03:47:14.347Z,960.06
2018-11-26T03:48:14.336Z,960.04
2018-11-26T03:49:14.318Z,960.03
2018-11-26T03:50:14.306Z,960.02
2018-11-26T03:51:14.292Z,960.04
2018-11-26T03:52:14.281Z,960.01
2018-11-26T03:53:14.260Z,960.04
2018-11-26T03:54:14.247Z,960.02
2018-11-26T03:55:14.231Z,960.03
2018-11-26T03:56:14.215Z,960.03
2018-11-26T03:57:14.203Z,960.01
2018-11-26T03:58:14.188Z,960.01
2018-11-26T03:59:14.171Z,959.99
2018-11-26T04:00:14.158Z,959.96
2018-11-26T04:01:14.139Z,959.94
2018-11-26T04:02:14.126Z,959.93
2018-11-26T04:03:14.113Z,959.89
2018-11-26T04:04:14.121Z,959.90
2018-11-26T04:05:14.082Z,959.87
2018-11-26T04:06:14.066Z,959.87
2018-11-26T04:07:14.052Z,959.87
2018-11-26T04:08:14.035Z,959.89
2018-11-26T04:09:14.024Z,959.90
2018-11-26T04:10:14.008Z,959.92
2018-11-26T04:11:13.997Z,959.90
2018-11-26T04:12:13.977Z,959.94
2018-11-26T04:13:13.963Z,959.91
2018-11-26T04:14:13.946Z,959.90
2018-11-26T04:15:13.931Z,959.89
2018-11-26T04:16:13.916Z,959.90
2018-11-26T04:17:13.902Z,959.89
2018-11-26T04:18:13.893Z,959.86
2018-11-26T04:19:13.871Z,959.88
2018-11-26T04:20:13.860Z,959.86
2018-11-26T04:21:13.843Z,959.85
2018-11-26T04:22:13.828Z,959.85
2018-11-26T04:23:13.814Z,959.85
2018-11-26T04:24:13.799Z,959.84
2018-11-26T04:25:13.783Z,959.82
2018-11-26T04:26:13.767Z,959.83
2018-11-26T04:27:13.755Z,959.86
2018-11-26T04:28:13.737Z,959.81
2018-11-26T04:29:13.736Z,959.85
2018-11-26T04:30:13.716Z,959.84
2018-11-26T04:31:13.692Z,959.84
2018-11-26T04:32:13.680Z,959.85
2018-11-26T04:33:13.664Z,959.84
2018-11-26T04:34:13.649Z,959.85
2018-11-26T04:35:13.633Z,959.83
2018-11-26T04:36:13.620Z,959.78
2018-11-26T04:37:13.603Z,959.84
2018-11-26T04:38:13.591Z,959.76
2018-11-26T04:39:13.574Z,959.82
2018-11-26T04:40:13.561Z,959.79
2018-11-26T04:41:13.544Z,959.81
2018-11-26T04:42:13.531Z,959.81
2018-11-26T04:43:13.516Z,959.85
2018-11-26T04:44:13.501Z,959.82
2018-11-26T04:45:13.488Z,959.77
2018-11-26T04:46:13.470Z,959.76
2018-11-26T04:47:13.458Z,959.78
2018-11-26T04:48:13.442Z,959.77
2018-11-26T04:49:13.427Z,959.76
2018-11-26T04:50:13.416Z,959.75
2018-11-26T04:51:13.397Z,959.78
2018-11-26T04:52:13.381Z,959.76
2018-11-26T04:53:13.369Z,959.75
2018-11-26T04:54:13.354Z,959.74
2018-11-26T04:55:13.339Z,959.74
2018-11-26T04:56:13.323Z,959.72
2018-11-26T04:57:13.307Z,959.70
2018-11-26T04:58:13.294Z,959.71
2018-11-26T04:59:13.279Z,959.73
2018-11-26T05:00:13.268Z,959.68
2018-11-26T05:01:13.249Z,959.71
2018-11-26T05:02:13.238Z,959.69
2018-11-26T05:03:13.221Z,959.68
2018-11-26T05:04:13.205Z,959.70
2018-11-26T05:05:13.201Z,959.67
2018-11-26T05:06:13.176Z,959.68
2018-11-26T05:07:13.159Z,959.70
2018-11-26T05:08:13.147Z,959.67
2018-11-26T05:09:13.129Z,959.69
2018-11-26T05:10:13.122Z,959.67
2018-11-26T05:11:13.103Z,959.69
2018-11-26T05:12:13.088Z,959.66
2018-11-26T05:13:13.073Z,959.68
2018-11-26T05:14:13.055Z,959.65
2018-11-26T05:15:13.045Z,959.64
2018-11-26T05:16:13.028Z,959.65
2018-11-26T05:17:13.012Z,959.68
2018-11-26T05:18:12.997Z,959.65
2018-11-26T05:19:12.983Z,959.67
2018-11-26T05:20:12.967Z,959.69
2018-11-26T05:21:12.953Z,959.64
2018-11-26T05:22:12.939Z,959.66
2018-11-26T05:23:12.923Z,959.61
2018-11-26T05:24:12.910Z,959.67
2018-11-26T05:25:12.976Z,959.71
2018-11-26T05:26:12.879Z,959.72
2018-11-26T05:27:12.862Z,959.71
2018-11-26T05:28:12.848Z,959.73
2018-11-26T05:29:12.834Z,959.70
2018-11-26T05:30:12.820Z,959.69
2018-11-26T05:31:12.805Z,959.75
2018-11-26T05:32:12.791Z,959.72
2018-11-26T05:33:12.771Z,959.70
2018-11-26T05:34:12.759Z,959.72
2018-11-26T05:35:12.745Z,959.69
2018-11-26T05:36:12.727Z,959.73
2018-11-26T05:37:12.713Z,959.68
2018-11-26T05:38:12.702Z,959.68
2018-11-26T05:39:12.683Z,959.67
2018-11-26T05:40:12.669Z,959.65
2018-11-26T05:41:12.655Z,959.70
2018-11-26T05:42:12.637Z,959.66
2018-11-26T05:43:12.627Z,959.62
2018-11-26T05:44:12.608Z,959.65
2018-11-26T05:45:12.598Z,959.65
2018-11-26T05:46:12.581Z,959.64
2018-11-26T05:47:12.568Z,959.63
2018-11-26T05:48:12.550Z,959.63
2018-11-26T05:49:12.534Z,959.68
2018-11-26T05:50:12.519Z,959.64
2018-11-26T05:51:12.508Z,959.67
2018-11-26T05:52:12.492Z,959.71
2018-11-26T05:53:12.476Z,959.70
2018-11-26T05:54:12.462Z,959.68
2018-11-26T05:55:12.450Z,959.74
2018-11-26T05:56:12.431Z,959.77
2018-11-26T05:57:12.415Z,959.76
2018-11-26T05:58:12.400Z,959.75
2018-11-26T05:59:12.387Z,959.76
2018-11-26T06:00:12.373Z,959.81
2018-11-26T06:01:12.358Z,959.80
2018-11-26T06:02:12.341Z,959.83
2018-11-26T06:03:12.326Z,959.81
2018-11-26T06:04:12.314Z,959.81
2018-11-26T06:05:12.300Z,959.81
2018-11-26T06:06:12.283Z,959.79
2018-11-26T06:07:12.269Z,959.78
2018-11-26T06:08:12.254Z,959.79
2018-11-26T06:09:12.244Z,959.79
2018-11-26T06:10:12.222Z,959.80
2018-11-26T06:11:12.208Z,959.77
2018-11-26T06:12:12.198Z,959.83
2018-11-26T06:13:12.177Z,959.80
2018-11-26T06:14:12.163Z,959.84
2018-11-26T06:15:12.151Z,959.82
2018-11-26T06:16:12.138Z,959.79
2018-11-26T06:17:12.135Z,959.81
2018-11-26T06:18:12.103Z,959.84
2018-11-26T06:19:12.087Z,959.84
2018-11-26T06:20:12.073Z,959.84
2018-11-26T06:21:12.059Z,959.86
2018-11-26T06:22:12.043Z,959.87
2018-11-26T06:23:12.032Z,959.87
2018-11-26T06:24:12.014Z,959.89
2018-11-26T06:25:11.999Z,959.93
2018-11-26T06:26:11.988Z,959.96
2018-11-26T06:27:11.970Z,959.92
2018-11-26T06:28:11.957Z,959.96
2018-11-26T06:29:11.940Z,959.93
2018-11-26T06:30:11.926Z,959.96
2018-11-26T06:31:11.912Z,960.00
2018-11-26T06:32:11.896Z,959.96
2018-11-26T06:33:11.880Z,959.94
2018-11-26T06:34:11.865Z,959.97
2018-11-26T06:35:11.851Z,959.98
2018-11-26T06:36:11.839Z,959.97
2018-11-26T06:37:11.824Z,959.96
2018-11-26T06:38:11.807Z,959.94
2018-11-26T06:39:11.793Z,959.98
2018-11-26T06:40:11.778Z,959.96
2018-11-26T06:41:11.768Z,960.01
2018-11-26T06:42:11.748Z,960.03
2018-11-26T06:43:11.732Z,959.99
2018-11-26T06:44:11.720Z,960.06
2018-11-26T06:45:11.710Z,960.07
2018-11-26T06:46:11.687Z,960.07
2018-11-26T06:47:11.674Z,960.14
2018-11-26T06:48:11.662Z,960.10
2018-11-26T06:49:11.642Z,960.09
2018-11-26T06:50:11.629Z,960.08
2018-11-26T06:51:11.613Z,960.09
2018-11-26T06:52:11.598Z,960.12
2018-11-26T06:53:11.581Z,960.13
2018-11-26T06:54:11.569Z,960.12
2018-11-26T06:55:11.555Z,960.17
2018-11-26T06:56:11.537Z,960.08
2018-11-26T06:57:11.522Z,960.12
2018-11-26T06:58:11.507Z,960.09
2018-11-26T06:59:11.492Z,960.11
2018-11-26T07:00:11.478Z,960.07
2018-11-26T07:01:11.461Z,960.12
2018-11-26T07:02:11.448Z,960.07
2018-11-26T07:03:11.431Z,960.10
2018-11-26T07:04:11.417Z,960.10
2018-11-26T07:05:11.402Z,960.10
2018-11-26T07:06:11.394Z,960.12
2018-11-26T07:07:11.371Z,960.07
2018-11-26T07:08:11.357Z,960.15
2018-11-26T07:09:11.341Z,960.06
2018-11-26T07:10:11.331Z,960.13
2018-11-26T07:11:11.315Z,960.14
2018-11-26T07:12:11.297Z,960.17
2018-11-26T07:13:11.282Z,960.17
2018-11-26T07:14:11.267Z,960.15
2018-11-26T07:15:11.252Z,960.19
2018-11-26T07:16:11.239Z,960.19
2018-11-26T07:17:11.227Z,960.20
2018-11-26T07:18:11.208Z,960.19
2018-11-26T07:19:11.194Z,960.18
2018-11-26T07:20:11.181Z,960.19
2018-11-26T07:21:11.165Z,960.21
2018-11-26T07:22:11.150Z,960.23
2018-11-26T07:23:11.133Z,960.25
2018-11-26T07:24:11.121Z,960.28
2018-11-26T07:25:11.104Z,960.26
2018-11-26T07:26:11.092Z,960.32
2018-11-26T07:27:11.073Z,960.32
2018-11-26T07:28:11.059Z,960.33
2018-11-26T07:29:11.044Z,960.35
2018-11-26T07:30:11.029Z,960.37
2018-11-26T07:31:11.016Z,960.35
2018-11-26T07:32:10.999Z,960.39
2018-11-26T07:33:10.984Z,960.39
2018-11-26T07:34:10.975Z,960.39
2018-11-26T07:35:10.964Z,960.44
2018-11-26T07:36:11.508Z,960.44
2018-11-26T07:37:10.925Z,960.42
2018-11-26T07:38:10.911Z,960.40
2018-11-26T07:39:10.897Z,960.42
2018-11-26T07:40:10.880Z,960.39
2018-11-26T07:41:10.864Z,960.39
2018-11-26T07:42:10.854Z,960.39
2018-11-26T07:43:10.835Z,960.43
2018-11-26T07:44:10.820Z,960.48
2018-11-26T07:45:10.806Z,960.44
2018-11-26T07:46:10.793Z,960.46
2018-11-26T07:47:10.779Z,960.46
2018-11-26T07:48:10.761Z,960.50
2018-11-26T07:49:10.745Z,960.51
2018-11-26T07:50:10.729Z,960.43
2018-11-26T07:51:10.714Z,960.44
2018-11-26T07:52:10.700Z,960.44
2018-11-26T07:53:10.687Z,960.48
2018-11-26T07:54:10.673Z,960.50
2018-11-26T07:55:10.653Z,960.50
2018-11-26T07:56:10.641Z,960.50
2018-11-26T07:57:10.622Z,960.50
2018-11-26T07:58:10.611Z,960.49
2018-11-26T07:59:10.595Z,960.52
2018-11-26T08:00:10.579Z,960.54
2018-11-26T08:01:10.565Z,960.54
2018-11-26T08:02:10.548Z,960.56
2018-11-26T08:03:10.535Z,960.56
2018-11-26T08:04:10.520Z,960.55
2018-11-26T08:05:10.504Z,960.58
2018-11-26T08:06:10.492Z,960.59
2018-11-26T08:07:10.473Z,960.57
2018-11-26T08:08:10.458Z,960.60
2018-11-26T08:09:10.441Z,960.61
2018-11-26T08:10:10.428Z,960.66
2018-11-26T08:11:10.412Z,960.64
2018-11-26T08:12:10.398Z,960.61
2018-11-26T08:13:10.381Z,960.63
2018-11-26T08:14:10.365Z,960.65
2018-11-26T08:15:10.350Z,960.64
2018-11-26T08:16:10.336Z,960.68
2018-11-26T08:17:10.320Z,960.65
2018-11-26T08:18:10.304Z,960.68
2018-11-26T08:19:10.294Z,960.71
2018-11-26T08:20:10.274Z,960.72
2018-11-26T08:21:10.259Z,960.68
2018-11-26T08:22:10.243Z,960.68
2018-11-26T08:23:10.233Z,960.73
2018-11-26T08:24:10.214Z,960.72
2018-11-26T08:25:10.196Z,960.67
2018-11-26T08:26:10.183Z,960.68
2018-11-26T08:27:10.172Z,960.74
2018-11-26T08:28:10.153Z,960.70
2018-11-26T08:29:10.137Z,960.72
2018-11-26T08:30:10.123Z,960.73
2018-11-26T08:31:10.107Z,960.77
2018-11-26T08:32:10.093Z,960.75
2018-11-26T08:33:10.080Z,960.71
2018-11-26T08:34:10.064Z,960.74
2018-11-26T08:35:10.049Z,960.80
2018-11-26T08:36:10.035Z,960.75
2018-11-26T08:37:10.015Z,960.80
2018-11-26T08:38:10.001Z,960.83
2018-11-26T08:39:09.987Z,960.82
2018-11-26T08:40:09.974Z,960.80
2018-11-26T08:41:09.956Z,960.82
2018-11-26T08:42:09.941Z,960.82
2018-11-26T08:43:09.926Z,960.85
2018-11-26T08:44:09.916Z,960.87
2018-11-26T08:45:09.894Z,960.84
2018-11-26T08:46:09.921Z,960.89
2018-11-26T08:47:09.865Z,960.85
2018-11-26T08:48:09.852Z,960.86
2018-11-26T08:49:09.835Z,960.87
2018-11-26T08:50:09.820Z,960.90
2018-11-26T08:51:09.806Z,960.85
2018-11-26T08:52:09.793Z,960.85
2018-11-26T08:53:09.806Z,960.87
2018-11-26T08:54:09.759Z,960.89
2018-11-26T08:55:09.745Z,960.85
2018-11-26T08:56:09.729Z,960.88
2018-11-26T08:57:09.714Z,960.85
2018-11-26T08:58:09.700Z,960.87
2018-11-26T08:59:09.686Z,960.83
2018-11-26T09:00:09.675Z,960.85
2018-11-26T09:01:09.656Z,960.90
2018-11-26T09:02:09.639Z,960.88
2018-11-26T09:03:09.626Z,960.87
2018-11-26T09:04:09.612Z,960.85
2018-11-26T09:05:09.593Z,960.83
2018-11-26T09:06:09.582Z,960.87
2018-11-26T09:07:09.568Z,960.86
2018-11-26T09:08:09.549Z,960.89
2018-11-26T09:09:09.533Z,960.92
2018-11-26T09:10:09.521Z,960.96
2018-11-26T09:11:09.507Z,960.95
2018-11-26T09:12:09.493Z,960.98
2018-11-26T09:13:09.476Z,961.00
2018-11-26T09:14:09.459Z,960.99
2018-11-26T09:15:09.447Z,961.02
2018-11-26T09:16:09.429Z,961.01
2018-11-26T09:17:09.416Z,961.08
2018-11-26T09:18:09.401Z,961.02
2018-11-26T09:19:09.386Z,960.99
2018-11-26T09:20:09.372Z,961.02
2018-11-26T09:21:09.355Z,961.07
2018-11-26T09:22:09.341Z,961.04
2018-11-26T09:23:09.324Z,961.02
2018-11-26T09:24:09.312Z,961.04
2018-11-26T09:25:09.297Z,961.06
2018-11-26T09:26:09.284Z,961.08
2018-11-26T09:27:09.815Z,961.08
2018-11-26T09:28:09.250Z,961.11
2018-11-26T09:29:09.235Z,961.12
2018-11-26T09:30:09.222Z,961.14
2018-11-26T09:31:09.208Z,961.12
2018-11-26T09:32:09.191Z,961.10
2018-11-26T09:33:09.175Z,961.14
2018-11-26T09:34:09.164Z,961.13
2018-11-26T09:35:09.146Z,961.11
2018-11-26T09:36:09.134Z,961.13
2018-11-26T09:37:09.118Z,961.15
2018-11-26T09:38:09.102Z,961.17
2018-11-26T09:39:09.088Z,961.21
2018-11-26T09:40:09.075Z,961.19
2018-11-26T09:41:09.057Z,961.22
2018-11-26T09:42:09.043Z,961.21
2018-11-26T09:43:09.029Z,961.23
2018-11-26T09:44:09.016Z,961.20
2018-11-26T09:45:08.999Z,961.23
2018-11-26T09:46:09.032Z,961.16
2018-11-26T09:47:08.970Z,961.22
2018-11-26T09:48:08.955Z,961.19
2018-11-26T09:49:08.941Z,961.19
2018-11-26T09:50:08.927Z,961.25
2018-11-26T09:51:14.113Z,961.26
2018-11-26T09:52:08.898Z,961.24
2018-11-26T09:53:08.882Z,961.25
2018-11-26T09:54:08.869Z,961.24
2018-11-26T09:55:08.854Z,961.22
2018-11-26T09:56:08.839Z,961.26
2018-11-26T09:57:08.825Z,961.23
2018-11-26T09:58:08.810Z,961.20
2018-11-26T09:59:08.796Z,961.22
2018-11-26T10:00:08.781Z,961.20
2018-11-26T10:01:08.764Z,961.22
2018-11-26T10:02:08.751Z,961.22
2018-11-26T10:03:08.740Z,961.16
2018-11-26T10:04:08.732Z,961.17
2018-11-26T10:05:08.709Z,961.24
2018-11-26T10:06:08.694Z,961.22
2018-11-26T10:07:08.679Z,961.22
2018-11-26T10:08:08.664Z,961.24
2018-11-26T10:09:08.652Z,961.16
2018-11-26T10:10:08.640Z,961.18
2018-11-26T10:11:08.621Z,961.24
2018-11-26T10:12:08.606Z,961.15
2018-11-26T10:13:08.590Z,961.18
2018-11-26T10:14:08.577Z,961.18
2018-11-26T10:15:08.561Z,961.17
2018-11-26T10:16:08.548Z,961.15
2018-11-26T10:17:08.533Z,961.14
2018-11-26T10:18:08.519Z,961.15
2018-11-26T10:19:08.504Z,961.09
2018-11-26T10:20:08.489Z,961.09
2018-11-26T10:21:08.475Z,961.11
2018-11-26T10:22:08.458Z,961.11
2018-11-26T10:23:08.444Z,961.14
2018-11-26T10:24:08.433Z,961.13
2018-11-26T10:25:08.416Z,961.12
2018-11-26T10:26:08.401Z,961.08
2018-11-26T10:27:08.386Z,961.15
2018-11-26T10:28:08.372Z,961.12
2018-11-26T10:29:08.358Z,961.11
2018-11-26T10:30:08.344Z,961.05
2018-11-26T10:31:08.328Z,961.09
2018-11-26T10:32:08.314Z,961.07
2018-11-26T10:33:14.697Z,961.09
2018-11-26T10:34:08.284Z,961.11
2018-11-26T10:35:08.270Z,961.13
2018-11-26T10:36:08.256Z,961.12
2018-11-26T10:37:08.240Z,961.12
2018-11-26T10:38:08.226Z,961.10
2018-11-26T10:39:08.213Z,961.13
2018-11-26T10:40:08.198Z,961.16
2018-11-26T10:41:08.183Z,961.12
2018-11-26T10:42:08.168Z,961.11
2018-11-26T10:43:11.669Z,961.11
2018-11-26T10:44:08.142Z,961.11
2018-11-26T10:45:08.129Z,961.11
2018-11-26T10:46:08.109Z,961.12
2018-11-26T10:47:08.099Z,961.11
2018-11-26T10:48:08.083Z,961.08
2018-11-26T10:49:08.067Z,961.10
2018-11-26T10:50:08.053Z,961.13
2018-11-26T10:51:08.039Z,961.12
2018-11-26T10:52:08.023Z,961.13
2018-11-26T10:53:08.163Z,961.15
2018-11-26T10:54:07.997Z,961.14
2018-11-26T10:55:07.982Z,961.15
2018-11-26T10:56:07.975Z,961.16
2018-11-26T10:57:08.099Z,961.13
2018-11-26T10:58:07.937Z,961.16
2018-11-26T10:59:07.927Z,961.14
2018-11-26T11:00:07.910Z,961.12
2018-11-26T11:01:07.897Z,961.17
2018-11-26T11:02:07.879Z,961.13
2018-11-26T11:03:07.867Z,961.14
2018-11-26T11:04:07.849Z,961.16
2018-11-26T11:05:07.836Z,961.14
2018-11-26T11:06:07.822Z,961.15
2018-11-26T11:07:07.810Z,961.12
2018-11-26T11:08:07.795Z,961.13
2018-11-26T11:09:07.777Z,961.12
2018-11-26T11:10:07.763Z,961.10
2018-11-26T11:11:07.750Z,961.11
2018-11-26T11:12:07.734Z,961.09
2018-11-26T11:13:07.722Z,961.09
2018-11-26T11:14:07.706Z,961.07
2018-11-26T11:15:07.694Z,961.12
2018-11-26T11:16:07.678Z,961.07
2018-11-26T11:17:07.663Z,961.07
2018-11-26T11:18:07.650Z,961.09
2018-11-26T11:19:07.635Z,961.09
2018-11-26T11:20:07.621Z,961.08
2018-11-26T11:21:07.605Z,961.06
2018-11-26T11:22:07.591Z,961.00
2018-11-26T11:23:07.578Z,961.07
2018-11-26T11:24:07.564Z,961.04
2018-11-26T11:25:07.548Z,961.10
2018-11-26T11:26:07.535Z,961.04
2018-11-26T11:27:07.519Z,961.09
2018-11-26T11:28:07.506Z,961.09
2018-11-26T11:29:07.490Z,961.11
2018-11-26T11:30:07.477Z,961.10
2018-11-26T11:31:07.467Z,961.08
2018-11-26T11:32:07.448Z,961.12
2018-11-26T11:33:47.776Z,961.07
2018-11-26T11:34:47.763Z,961.08
2018-11-26T11:35:47.749Z,961.05
2018-11-26T11:36:47.736Z,961.08
2018-11-26T11:37:47.719Z,961.06
2018-11-26T11:38:47.705Z,961.10
2018-11-26T11:39:47.693Z,961.11
2018-11-26T11:40:47.678Z,961.14
2018-11-26T11:41:47.662Z,961.12
2018-11-26T11:42:47.646Z,961.13
2018-11-26T11:43:47.634Z,961.12
2018-11-26T11:44:47.619Z,961.14
2018-11-26T11:45:47.603Z,961.14
2018-11-26T11:46:47.591Z,961.11
2018-11-26T11:47:47.576Z,961.14
2018-11-26T11:48:47.562Z,961.17
2018-11-26T11:49:47.549Z,961.17
2018-11-26T11:50:47.534Z,961.21
2018-11-26T11:51:47.517Z,961.23
2018-11-26T11:52:47.505Z,961.24
2018-11-26T11:53:47.491Z,961.27
2018-11-26T11:54:47.482Z,961.27
2018-11-26T11:55:47.461Z,961.25
2018-11-26T11:56:47.451Z,961.22
2018-11-26T11:57:47.433Z,961.23
2018-11-26T11:58:47.416Z,961.21
2018-11-26T11:59:47.403Z,961.19
2018-11-26T12:00:47.397Z,961.23
2018-11-26T12:01:47.372Z,961.19
2018-11-26T12:02:47.357Z,961.21
2018-11-26T12:03:47.345Z,961.24
2018-11-26T12:04:47.331Z,961.22
2018-11-26T12:05:47.317Z,961.23
2018-11-26T12:06:47.299Z,961.25
2018-11-26T12:07:47.285Z,961.23
2018-11-26T12:08:47.272Z,961.23
2018-11-26T12:09:47.257Z,961.26
2018-11-26T12:10:47.242Z,961.27
2018-11-26T12:11:48.140Z,961.29
2018-11-26T12:12:47.217Z,961.29
2018-11-26T12:13:47.202Z,961.28
2018-11-26T12:14:47.184Z,961.27
2018-11-26T12:15:47.179Z,961.29
2018-11-26T12:16:47.157Z,961.27
2018-11-26T12:17:47.141Z,961.28
2018-11-26T12:18:47.126Z,961.30
2018-11-26T12:19:47.113Z,961.25
2018-11-26T12:20:47.099Z,961.27
2018-11-26T12:21:47.084Z,961.30
2018-11-26T12:22:47.070Z,961.24
2018-11-26T12:23:47.056Z,961.32
2018-11-26T12:24:47.040Z,961.30
2018-11-26T12:25:47.028Z,961.28
2018-11-26T12:26:47.011Z,961.30
2018-11-26T12:27:46.997Z,961.28
2018-11-26T12:28:46.983Z,961.26